createdAt,value
2017-05-25T04:00:18.780Z,9.12
2017-05-25T04:02:47.074Z,8.58
2017-05-25T04:05:15.448Z,9.12
2017-05-25T04:07:43.810Z,8.50
2017-05-25T04:10:12.185Z,8.48
2017-05-25T04:12:40.577Z,8.42
2017-05-25T04:15:08.870Z,8.64
2017-05-25T04:17:37.155Z,8.90
2017-05-25T04:20:05.525Z,9.12
2017-05-25T04:22:33.852Z,9.28
2017-05-25T04:25:02.229Z,9.80
2017-05-25T04:27:30.565Z,8.40
2017-05-25T04:29:58.161Z,8.60
2017-05-25T04:32:26.470Z,8.16
2017-05-25T04:34:54.855Z,9.72
2017-05-25T04:37:23.171Z,8.62
2017-05-25T04:39:51.461Z,9.92
2017-05-25T04:42:19.898Z,9.86
2017-05-25T04:44:48.287Z,8.56
2017-05-25T04:47:16.605Z,8.66
2017-05-25T04:49:44.917Z,8.56
2017-05-25T04:52:13.269Z,9.16
2017-05-25T04:54:41.570Z,9.18
2017-05-25T04:57:09.938Z,10.42
2017-05-25T04:59:38.272Z,9.12
2017-05-25T05:02:06.586Z,9.60
2017-05-25T05:04:34.924Z,9.18
2017-05-25T05:07:03.307Z,9.50
2017-05-25T05:09:31.613Z,9.56
2017-05-25T05:11:59.980Z,9.94
2017-05-25T05:14:28.284Z,9.14
2017-05-25T05:16:56.632Z,10.18
2017-05-25T05:19:24.977Z,11.18
2017-05-25T05:21:53.312Z,10.22
2017-05-25T05:24:21.633Z,9.74
2017-05-25T05:26:50.004Z,10.18
2017-05-25T05:29:18.337Z,9.54
2017-05-25T05:31:46.644Z,10.26
2017-05-25T05:34:14.271Z,12.40
2017-05-25T05:36:42.613Z,9.32
2017-05-25T05:39:11.073Z,11.40
2017-05-25T05:41:39.372Z,10.18
2017-05-25T05:44:07.729Z,10.28
2017-05-25T05:46:36.085Z,12.30
2017-05-25T05:49:04.405Z,11.54
2017-05-25T05:51:32.938Z,12.14
2017-05-25T05:54:01.308Z,13.34
2017-05-25T05:56:29.622Z,12.38
2017-05-25T05:58:57.927Z,9.94
2017-05-25T06:01:26.328Z,11.22
2017-05-25T06:03:54.667Z,11.00
2017-05-25T06:06:22.985Z,11.34
2017-05-25T06:08:50.616Z,10.58
2017-05-25T06:11:18.936Z,11.08
2017-05-25T06:13:47.241Z,11.26
2017-05-25T06:16:15.612Z,11.42
2017-05-25T06:18:43.949Z,13.38
2017-05-25T06:21:12.322Z,12.00
2017-05-25T06:23:40.716Z,10.74
2017-05-25T06:26:09.010Z,10.72
2017-05-25T06:28:37.864Z,11.42
2017-05-25T06:31:06.180Z,11.02
2017-05-25T06:36:27.875Z,10.76
2017-05-25T06:38:56.281Z,10.58
2017-05-25T06:41:24.604Z,10.80
2017-05-25T06:43:52.953Z,9.22
2017-05-25T06:46:21.305Z,8.74
2017-05-25T06:48:49.625Z,8.74
2017-05-25T06:51:17.944Z,10.52
2017-05-25T06:53:46.336Z,10.00
2017-05-25T06:56:14.633Z,9.50
2017-05-25T06:58:42.948Z,9.76
2017-05-25T07:01:11.292Z,8.28
2017-05-25T07:03:39.620Z,9.26
2017-05-25T07:06:07.141Z,9.46
2017-05-25T07:08:35.488Z,8.46
2017-05-25T07:11:03.841Z,8.56
2017-05-25T07:13:32.153Z,9.16
2017-05-25T07:16:00.535Z,9.44
2017-05-25T07:18:28.869Z,8.34
2017-05-25T07:20:57.188Z,8.14
2017-05-25T07:23:25.544Z,8.54
2017-05-25T07:25:53.868Z,10.44
2017-05-25T07:28:22.195Z,9.50
2017-05-25T07:30:50.588Z,9.18
2017-05-25T07:33:18.876Z,8.62
2017-05-25T07:35:47.198Z,8.60
2017-05-25T07:38:15.596Z,8.12
2017-05-25T07:40:43.891Z,8.88
2017-05-25T07:43:12.238Z,7.58
2017-05-25T07:45:40.614Z,8.10
2017-05-25T07:48:09.011Z,7.76
2017-05-25T07:50:37.332Z,7.32
2017-05-25T07:53:05.690Z,7.74
2017-05-25T07:55:33.987Z,7.40
2017-05-25T07:58:02.317Z,7.92
2017-05-25T08:00:30.667Z,7.90
2017-05-25T08:02:58.202Z,7.54
